Forside
METAR-TAF:

METAR-TAF

Lufthavne :

Barrow Island, Australien

Breddekreds: 20-51-57S, længdekreds: 115-24-17E, højde: 8 m

Aktuelle vejr

Denne rapport blev lavet for 23 minutter siden, kl. 07:00 UTC
Vind 18 kt fra sydvest
Temperatur 29°C
Fugtighed 48%
Tryk 1011 hPa

METAR: YBWX 220700Z AUTO 23018KT //// // ////// 29/17 Q1011

Tid: 15:23 (07:23 UTC)


TAF: fraværende

Vejrobservationer og prognoser fra mere end 4000 lufthavne (METAR og TAF).

De gule og røde prikker repræsenterer de meteorologiske stationer.

Flyt musen over at se navnet på stationen.

Så klik over at se vejr observationer og prognoser.

At skifte det kort: Klik på de grønne knapper med et sort kors for at zoome ind; på den grønne knap med en bindestreg for at zoome ud; eller på de grønne pile for tilstødende kort.


METAR-TAF: